Time;durP1;ratioP1;P1;durP2;ratioP2;P2;SDS_P1;SDS_P2;PMS_P1;PMS_P2;Temp;Humidity;BMP_temperature;BMP_pressure;BME280_temperature;BME280_humidity;BME280_pressure;Samples;Min_cycle;Max_cycle;Signal;HPM_P1;HPM_P2
2023/08/08 00:01:56;;;;;;;4.22;1.17;;;16.30;99.90;;;;;;5102274;27;45114;-72
2023/08/08 00:04:23;;;;;;;7.63;1.35;;;16.20;99.90;;;;;;5103228;27;45266;-72
2023/08/08 00:06:50;;;;;;;1.88;1.00;;;16.20;99.90;;;;;;5104887;27;47246;-72
2023/08/08 00:09:17;;;;;;;3.33;1.10;;;16.30;99.90;;;;;;5105500;27;45135;-72
2023/08/08 00:11:43;;;;;;;2.17;1.30;;;16.30;99.90;;;;;;5102114;27;45132;-72
2023/08/08 00:14:12;;;;;;;9.30;0.98;;;16.40;99.90;;;;;;5103341;27;45160;-72
2023/08/08 00:16:38;;;;;;;4.72;1.30;;;16.40;99.90;;;;;;5096071;27;46949;-73
2023/08/08 00:19:05;;;;;;;4.43;1.30;;;16.40;99.90;;;;;;5106747;27;45165;-72
2023/08/08 00:21:32;;;;;;;5.38;1.30;;;16.40;99.90;;;;;;5105534;27;45109;-72
2023/08/08 00:23:59;;;;;;;2.20;1.30;;;16.60;99.90;;;;;;5106369;27;45043;-72
2023/08/08 00:26:26;;;;;;;2.15;1.25;;;16.60;99.90;;;;;;5107537;27;46272;-72
2023/08/08 00:28:52;;;;;;;6.00;1.52;;;16.50;99.90;;;;;;5106251;27;45087;-72
2023/08/08 00:31:21;;;;;;;6.32;1.70;;;16.40;99.90;;;;;;5105445;27;45127;-72
2023/08/08 00:33:47;;;;;;;4.55;1.30;;;16.40;99.90;;;;;;5106367;27;45144;-72
2023/08/08 00:36:14;;;;;;;6.47;1.48;;;16.50;99.90;;;;;;5105613;27;46897;-72
2023/08/08 00:38:41;;;;;;;2.78;1.40;;;16.50;99.90;;;;;;5106781;27;45238;-72
2023/08/08 00:41:08;;;;;;;2.88;1.40;;;16.60;99.90;;;;;;5106488;27;45369;-72
2023/08/08 00:43:34;;;;;;;4.03;1.60;;;16.70;99.90;;;;;;5105426;27;45230;-72
2023/08/08 00:46:01;;;;;;;4.97;1.50;;;16.60;99.90;;;;;;5105898;27;46299;-73
2023/08/08 00:48:29;;;;;;;4.95;1.35;;;16.60;99.90;;;;;;5108041;27;45146;-72
2023/08/08 00:50:56;;;;;;;2.65;1.45;;;16.50;99.90;;;;;;5105180;27;45179;-72
2023/08/08 00:53:25;;;;;;;6.05;1.90;;;16.40;99.90;;;;;;5106051;27;45130;-72
2023/08/08 00:55:53;;;;;;;2.67;1.70;;;16.50;99.90;;;;;;5105709;27;47380;-72
2023/08/08 00:58:20;;;;;;;1.73;1.27;;;16.30;99.90;;;;;;5110617;27;45082;-72
2023/08/08 01:00:47;;;;;;;4.53;1.52;;;16.30;99.90;;;;;;5103965;27;45172;-73
2023/08/08 01:03:14;;;;;;;4.22;1.85;;;16.30;99.90;;;;;;5104948;27;45280;-72
2023/08/08 01:05:48;;;;;;;5.03;1.40;;;16.10;99.90;;;;;;5105450;27;47305;-72
2023/08/08 01:08:20;;;;;;;3.00;1.55;;;16.20;99.90;;;;;;5110123;27;45169;-72
2023/08/08 01:10:46;;;;;;;5.50;1.48;;;16.30;99.90;;;;;;5104969;27;45192;-72
2023/08/08 01:13:19;;;;;;;3.60;1.50;;;16.10;99.90;;;;;;5105860;27;45239;-73
2023/08/08 01:15:49;;;;;;;2.92;1.42;;;16.20;99.90;;;;;;5098062;27;46248;-73
2023/08/08 01:18:16;;;;;;;2.80;1.40;;;16.20;99.90;;;;;;5105226;27;45149;-72
2023/08/08 01:20:45;;;;;;;4.32;1.67;;;16.20;99.90;;;;;;5104470;27;45102;-73
2023/08/08 01:23:18;;;;;;;4.50;1.45;;;16.20;99.90;;;;;;5105737;27;45281;-72
2023/08/08 01:25:47;;;;;;;6.68;1.58;;;16.20;99.90;;;;;;5104790;27;46528;-72
2023/08/08 01:28:14;;;;;;;2.60;1.23;;;16.20;99.90;;;;;;5103862;27;45175;-73
2023/08/08 01:30:42;;;;;;;8.15;1.38;;;16.20;99.90;;;;;;5105205;27;45143;-72
2023/08/08 01:33:09;;;;;;;5.25;1.60;;;16.20;99.90;;;;;;5105335;27;45509;-72
2023/08/08 01:35:40;;;;;;;3.55;1.40;;;16.20;99.90;;;;;;5108660;27;45433;-72
2023/08/08 01:38:12;;;;;;;4.05;1.60;;;16.20;99.90;;;;;;5104866;27;45094;-72
2023/08/08 01:40:40;;;;;;;5.25;1.63;;;16.30;99.90;;;;;;5099998;27;45213;-72
2023/08/08 01:43:10;;;;;;;2.45;1.38;;;16.10;99.90;;;;;;5105688;27;45363;-72
2023/08/08 01:45:37;;;;;;;6.05;1.58;;;16.00;99.90;;;;;;5111937;27;47179;-72
2023/08/08 01:48:08;;;;;;;6.35;1.80;;;16.10;99.90;;;;;;5105193;27;45244;-73
2023/08/08 01:50:35;;;;;;;5.45;1.45;;;16.10;99.90;;;;;;5105039;27;45070;-72
2023/08/08 01:53:02;;;;;;;2.47;1.50;;;16.20;99.90;;;;;;5105145;27;45262;-72
2023/08/08 01:55:28;;;;;;;5.47;1.50;;;16.30;99.90;;;;;;5103424;27;46936;-72
2023/08/08 01:57:55;;;;;;;6.22;1.60;;;16.30;99.90;;;;;;5105080;27;45088;-72
2023/08/08 02:00:24;;;;;;;3.58;1.50;;;16.30;99.90;;;;;;5103476;27;45176;-72
2023/08/08 02:02:50;;;;;;;5.22;1.35;;;16.30;99.90;;;;;;5104001;27;45233;-73
2023/08/08 02:05:17;;;;;;;3.95;1.40;;;16.90;99.90;;;;;;5110558;27;46191;-73
2023/08/08 02:07:44;;;;;;;3.53;1.30;;;17.30;99.80;;;;;;5104851;27;45301;-72
2023/08/08 02:10:11;;;;;;;2.17;1.15;;;17.50;99.10;;;;;;5104905;27;45102;-72
2023/08/08 02:12:38;;;;;;;1.90;1.20;;;17.60;99.10;;;;;;5103797;27;45492;-72
2023/08/08 02:15:05;;;;;;;3.88;1.40;;;17.60;98.80;;;;;;5103582;27;47611;-72
2023/08/08 02:17:34;;;;;;;2.80;1.10;;;17.60;98.40;;;;;;5103928;27;45201;-73
2023/08/08 02:20:00;;;;;;;10.15;1.45;;;17.50;98.70;;;;;;5104657;27;45253;-73
2023/08/08 02:22:27;;;;;;;5.93;1.25;;;17.50;98.40;;;;;;5103888;27;45393;-72
2023/08/08 02:24:54;;;;;;;6.30;1.30;;;17.50;98.70;;;;;;5103208;27;46220;-72
2023/08/08 02:27:20;;;;;;;3.40;1.20;;;17.60;98.50;;;;;;5103856;27;45111;-73
2023/08/08 02:29:46;;;;;;;8.98;1.23;;;17.60;98.50;;;;;;5104031;27;45103;-72
2023/08/08 02:32:14;;;;;;;4.90;1.17;;;17.70;98.90;;;;;;5103404;27;45283;-72
2023/08/08 02:34:42;;;;;;;3.47;1.33;;;17.60;98.10;;;;;;5095186;27;47523;-73
2023/08/08 02:37:09;;;;;;;2.58;1.10;;;17.60;98.50;;;;;;5104108;27;45124;-73
2023/08/08 02:39:36;;;;;;;4.07;1.08;;;17.60;98.30;;;;;;5096421;27;45079;-72
2023/08/08 02:42:03;;;;;;;2.75;1.10;;;17.60;98.30;;;;;;5106696;27;45360;-73
2023/08/08 02:44:30;;;;;;;6.40;1.35;;;17.50;98.50;;;;;;5103309;27;48129;-73
2023/08/08 02:46:57;;;;;;;3.25;1.17;;;17.50;98.40;;;;;;5104014;27;45141;-72
2023/08/08 02:49:23;;;;;;;8.50;1.60;;;17.50;98.70;;;;;;5103583;27;45049;-72
2023/08/08 02:51:52;;;;;;;4.45;1.10;;;17.50;98.40;;;;;;5107464;27;45085;-72
2023/08/08 02:54:18;;;;;;;3.55;1.23;;;17.60;98.30;;;;;;5103163;27;47868;-72
2023/08/08 02:56:45;;;;;;;4.20;1.25;;;17.50;98.70;;;;;;5099395;27;45908;-73
2023/08/08 02:59:12;;;;;;;3.00;1.20;;;17.50;98.50;;;;;;5098732;27;45120;-72
2023/08/08 03:01:39;;;;;;;2.75;1.10;;;17.40;98.60;;;;;;5103000;27;45133;-72
2023/08/08 03:04:06;;;;;;;3.17;1.15;;;17.50;98.50;;;;;;5103179;27;45445;-72
2023/08/08 03:06:33;;;;;;;2.97;1.13;;;17.50;98.70;;;;;;5108208;27;45203;-72
2023/08/08 03:09:02;;;;;;;5.65;1.13;;;17.60;98.60;;;;;;5103636;27;45154;-73
2023/08/08 03:11:28;;;;;;;2.72;1.42;;;17.70;98.30;;;;;;5098866;27;45269;-72
2023/08/08 03:13:55;;;;;;;4.25;1.17;;;17.70;98.80;;;;;;5099878;27;46271;-72
2023/08/08 03:16:22;;;;;;;5.32;1.65;;;17.70;98.80;;;;;;5102883;27;45291;-72
2023/08/08 03:18:49;;;;;;;2.88;1.23;;;17.60;98.30;;;;;;5103202;27;45288;-72
2023/08/08 03:21:15;;;;;;;3.92;1.23;;;17.60;98.50;;;;;;5102510;27;45307;-72
2023/08/08 03:23:42;;;;;;;3.15;1.30;;;17.60;98.60;;;;;;5103232;27;47167;-72
2023/08/08 03:26:10;;;;;;;6.28;1.58;;;17.50;98.80;;;;;;5100961;27;45643;-72
2023/08/08 03:28:37;;;;;;;2.38;1.02;;;17.50;98.60;;;;;;5101300;27;45159;-73
2023/08/08 03:31:04;;;;;;;4.85;1.55;;;17.40;99.10;;;;;;5103516;27;45463;-72
2023/08/08 03:33:31;;;;;;;4.32;1.45;;;17.40;99.10;;;;;;5101131;27;46019;-73
2023/08/08 03:35:58;;;;;;;6.72;1.38;;;17.40;99.10;;;;;;5101652;27;45200;-72
2023/08/08 03:38:24;;;;;;;7.88;1.42;;;17.30;99.30;;;;;;5101292;27;45395;-72
2023/08/08 03:40:51;;;;;;;5.60;1.40;;;17.40;99.50;;;;;;5104558;27;45250;-72
2023/08/08 03:43:19;;;;;;;5.10;1.42;;;17.40;99.30;;;;;;5115040;27;47222;-73
2023/08/08 03:45:47;;;;;;;3.92;1.52;;;17.20;99.50;;;;;;5103174;27;45626;-72
2023/08/08 03:48:14;;;;;;;4.13;1.33;;;17.40;99.60;;;;;;5107852;27;45310;-73
2023/08/08 03:50:40;;;;;;;4.85;1.60;;;17.40;99.60;;;;;;5100491;27;45454;-72
2023/08/08 03:53:07;;;;;;;8.57;1.88;;;17.20;99.90;;;;;;5102413;27;46480;-72
2023/08/08 03:55:34;;;;;;;3.85;1.35;;;17.10;99.90;;;;;;5102642;27;45270;-72
2023/08/08 03:58:01;;;;;;;5.05;1.85;;;17.20;99.90;;;;;;5102992;27;45177;-72
2023/08/08 04:00:29;;;;;;;4.35;1.30;;;17.30;99.90;;;;;;5102188;27;45062;-72
2023/08/08 04:02:56;;;;;;;5.50;1.38;;;17.30;99.90;;;;;;5108331;27;48281;-73
2023/08/08 04:05:22;;;;;;;7.28;1.40;;;17.30;99.90;;;;;;5100851;27;45211;-72
2023/08/08 04:07:48;;;;;;;8.57;1.23;;;17.30;99.90;;;;;;5102792;27;45128;-72
2023/08/08 04:10:15;;;;;;;5.93;1.42;;;17.50;99.90;;;;;;5102925;27;45230;-72
2023/08/08 04:12:42;;;;;;;4.60;1.42;;;17.50;99.90;;;;;;5105418;27;47197;-72
2023/08/08 04:15:09;;;;;;;5.50;1.45;;;17.60;99.90;;;;;;5103193;27;45167;-73
2023/08/08 04:17:37;;;;;;;5.93;1.42;;;17.60;99.90;;;;;;5102413;27;45236;-72
2023/08/08 04:20:06;;;;;;;10.70;1.58;;;17.60;99.90;;;;;;5102867;27;45324;-72
2023/08/08 04:22:33;;;;;;;5.30;1.70;;;17.70;99.80;;;;;;5108026;27;46440;-72
2023/08/08 04:25:00;;;;;;;4.25;1.40;;;17.70;99.90;;;;;;5101675;27;45285;-72
2023/08/08 04:27:26;;;;;;;5.45;1.63;;;17.60;99.90;;;;;;5102194;27;45059;-73
2023/08/08 04:29:53;;;;;;;5.65;1.50;;;17.70;99.90;;;;;;5102036;27;45147;-73
2023/08/08 04:32:20;;;;;;;8.88;1.98;;;17.70;99.90;;;;;;5100115;27;46173;-72
2023/08/08 04:34:48;;;;;;;5.28;1.70;;;17.70;99.90;;;;;;5102851;27;45162;-73
2023/08/08 04:37:15;;;;;;;4.80;1.33;;;17.70;99.90;;;;;;5102095;27;45283;-72
2023/08/08 04:39:42;;;;;;;7.22;1.60;;;17.70;99.90;;;;;;5107843;27;45273;-72
2023/08/08 04:42:08;;;;;;;7.18;2.00;;;17.80;99.90;;;;;;5101798;27;45181;-73
2023/08/08 04:44:35;;;;;;;8.60;1.80;;;17.80;99.90;;;;;;5100327;27;45157;-72
2023/08/08 04:47:02;;;;;;;9.13;1.88;;;17.80;99.90;;;;;;5102221;27;45125;-73
2023/08/08 04:49:29;;;;;;;6.55;1.65;;;17.70;99.90;;;;;;5107148;27;45077;-72
2023/08/08 04:51:57;;;;;;;4.85;1.45;;;17.80;99.90;;;;;;5101568;27;47609;-72
2023/08/08 04:54:24;;;;;;;6.43;1.92;;;17.80;99.90;;;;;;5102252;27;45243;-72
2023/08/08 04:56:51;;;;;;;6.78;2.05;;;17.80;99.90;;;;;;5102505;27;45295;-72
2023/08/08 04:59:18;;;;;;;7.82;1.67;;;17.90;99.90;;;;;;5105350;27;45266;-73
2023/08/08 05:01:44;;;;;;;8.82;2.33;;;17.90;99.90;;;;;;5093206;27;47283;-72
2023/08/08 05:04:11;;;;;;;5.75;1.70;;;17.90;99.90;;;;;;5109934;27;45390;-73
2023/08/08 05:06:38;;;;;;;8.43;1.92;;;17.90;99.90;;;;;;5105828;27;45140;-72
2023/08/08 05:09:09;;;;;;;4.40;1.70;;;18.00;99.90;;;;;;5111218;27;45566;-73
2023/08/08 05:11:35;;;;;;;11.70;2.05;;;18.00;99.90;;;;;;5103919;27;46459;-72
2023/08/08 05:14:03;;;;;;;8.55;2.00;;;17.90;99.90;;;;;;5099314;27;45323;-72
2023/08/08 05:16:29;;;;;;;5.25;1.60;;;17.90;99.90;;;;;;5098355;27;45161;-73
2023/08/08 05:18:56;;;;;;;7.03;1.63;;;18.00;99.90;;;;;;5103853;27;45141;-73
2023/08/08 05:21:23;;;;;;;8.13;1.98;;;18.00;99.90;;;;;;5102418;27;45188;-72
2023/08/08 05:23:50;;;;;;;8.93;2.05;;;18.00;99.90;;;;;;5104125;27;45136;-72
2023/08/08 05:26:19;;;;;;;12.48;1.80;;;18.00;99.90;;;;;;5101455;27;45098;-73
2023/08/08 05:28:45;;;;;;;7.95;2.20;;;18.00;99.90;;;;;;5103653;27;45086;-72
2023/08/08 05:31:12;;;;;;;7.28;2.03;;;18.10;99.90;;;;;;5112345;27;45333;-73
2023/08/08 05:33:39;;;;;;;6.18;1.90;;;18.10;99.90;;;;;;5105491;27;46041;-72
2023/08/08 05:36:06;;;;;;;6.05;1.88;;;18.00;99.90;;;;;;5109017;27;45244;-73
2023/08/08 05:38:32;;;;;;;7.03;1.60;;;17.90;99.90;;;;;;5107294;27;45292;-72
2023/08/08 05:40:59;;;;;;;4.57;1.63;;;17.90;99.90;;;;;;5104852;27;45231;-73
2023/08/08 05:43:28;;;;;;;8.30;1.80;;;17.90;99.90;;;;;;5105139;27;45250;-72
2023/08/08 05:45:55;;;;;;;8.75;2.00;;;18.00;99.90;;;;;;5105430;27;45268;-72
2023/08/08 05:48:22;;;;;;;5.43;1.65;;;18.00;99.90;;;;;;5118377;27;45175;-72
2023/08/08 05:50:48;;;;;;;7.85;1.90;;;18.00;99.90;;;;;;5103089;27;46373;-72
2023/08/08 05:53:15;;;;;;;10.93;2.30;;;18.00;99.90;;;;;;5097345;27;45244;-72
2023/08/08 05:55:42;;;;;;;4.85;2.17;;;17.90;99.90;;;;;;5103717;27;45121;-73
2023/08/08 05:58:09;;;;;;;7.25;1.77;;;18.00;99.90;;;;;;5105905;27;45430;-72
2023/08/08 06:00:37;;;;;;;11.98;1.92;;;17.80;99.90;;;;;;5109824;27;46609;-72
2023/08/08 06:03:05;;;;;;;4.90;1.73;;;17.80;99.90;;;;;;5104599;27;45128;-73
2023/08/08 06:05:31;;;;;;;10.40;2.00;;;17.80;99.90;;;;;;5102612;27;45232;-73
2023/08/08 06:07:58;;;;;;;6.13;1.90;;;17.90;99.90;;;;;;5108535;27;45368;-72
2023/08/08 06:10:26;;;;;;;7.35;1.80;;;17.90;99.90;;;;;;5110633;27;47299;-73
2023/08/08 06:12:52;;;;;;;8.88;1.85;;;17.90;99.90;;;;;;5108644;27;45329;-73
2023/08/08 06:15:19;;;;;;;4.75;1.60;;;17.90;99.90;;;;;;5102759;27;45318;-72
2023/08/08 06:17:48;;;;;;;8.77;1.90;;;17.80;99.90;;;;;;5107905;27;45187;-72
2023/08/08 06:20:14;;;;;;;10.02;1.98;;;17.80;99.90;;;;;;5115366;27;46993;-72
2023/08/08 06:22:43;;;;;;;5.38;1.73;;;17.80;99.90;;;;;;5103755;27;45192;-72
2023/08/08 06:25:10;;;;;;;4.57;1.83;;;17.90;99.90;;;;;;5104532;27;45354;-72
2023/08/08 06:27:37;;;;;;;5.28;1.52;;;17.80;99.90;;;;;;5102333;27;45219;-72
2023/08/08 06:30:05;;;;;;;8.15;1.85;;;17.80;99.90;;;;;;5103533;27;46090;-72
2023/08/08 06:32:32;;;;;;;8.07;1.42;;;17.80;99.90;;;;;;5102929;27;45300;-72
2023/08/08 06:35:00;;;;;;;5.35;1.90;;;17.80;99.90;;;;;;5107465;27;45194;-72
2023/08/08 06:37:27;;;;;;;8.27;2.05;;;17.80;99.90;;;;;;5110131;27;45247;-72
2023/08/08 06:39:54;;;;;;;9.98;2.05;;;17.80;99.90;;;;;;5110373;27;46314;-73
2023/08/08 06:42:21;;;;;;;5.30;1.60;;;18.00;99.90;;;;;;5106799;27;45285;-72
2023/08/08 06:44:48;;;;;;;3.85;1.40;;;18.00;99.90;;;;;;5102603;27;45204;-72
2023/08/08 06:47:15;;;;;;;12.07;1.92;;;18.00;99.90;;;;;;5103426;27;45390;-72
2023/08/08 06:49:42;;;;;;;6.15;1.70;;;18.00;99.90;;;;;;5103688;27;45401;-71
2023/08/08 06:52:10;;;;;;;10.65;2.10;;;18.10;99.90;;;;;;5103398;27;45267;-72
2023/08/08 06:54:37;;;;;;;5.47;2.00;;;18.10;99.90;;;;;;5103917;27;45225;-71
2023/08/08 06:57:04;;;;;;;2.95;1.42;;;18.10;99.80;;;;;;5105293;27;45213;-71
2023/08/08 06:59:31;;;;;;;7.88;1.75;;;18.30;99.90;;;;;;5105864;27;46231;-72
2023/08/08 07:01:57;;;;;;;5.55;1.75;;;18.50;99.40;;;;;;5102251;27;45978;-72
2023/08/08 07:04:25;;;;;;;7.05;1.73;;;18.40;99.60;;;;;;5103708;27;45157;-72
2023/08/08 07:06:51;;;;;;;5.13;1.70;;;18.30;99.70;;;;;;5107015;27;45368;-71
2023/08/08 07:09:20;;;;;;;8.20;1.90;;;18.40;99.60;;;;;;5107684;27;46078;-72
2023/08/08 07:11:47;;;;;;;6.47;1.92;;;18.50;99.20;;;;;;5103575;27;45400;-73
2023/08/08 07:14:14;;;;;;;4.38;1.23;;;18.50;99.50;;;;;;5103511;27;45184;-72
2023/08/08 07:16:41;;;;;;;8.02;1.85;;;18.60;99.60;;;;;;5102659;27;45266;-71
2023/08/08 07:19:07;;;;;;;12.63;2.22;;;18.60;99.00;;;;;;5103005;27;45183;-71
2023/08/08 07:21:34;;;;;;;8.48;2.03;;;18.60;99.00;;;;;;5102796;27;45140;-72
2023/08/08 07:24:02;;;;;;;6.78;2.20;;;18.30;99.50;;;;;;5102624;27;45206;-72
2023/08/08 07:26:31;;;;;;;8.98;1.90;;;18.20;99.90;;;;;;5101443;27;45402;-72
2023/08/08 07:28:57;;;;;;;6.68;1.95;;;18.30;99.90;;;;;;5103092;27;46220;-73
2023/08/08 07:31:24;;;;;;;11.65;2.97;;;18.20;99.80;;;;;;5102307;27;45107;-73
2023/08/08 07:33:51;;;;;;;5.65;1.88;;;18.00;99.90;;;;;;5099955;27;45210;-72
2023/08/08 07:36:18;;;;;;;7.70;2.17;;;18.10;99.90;;;;;;5104160;27;45399;-72
2023/08/08 07:38:44;;;;;;;7.75;2.08;;;18.30;99.90;;;;;;5102880;27;45318;-72
2023/08/08 07:41:11;;;;;;;8.95;2.75;;;18.10;99.90;;;;;;5102705;27;45152;-72
2023/08/08 07:43:39;;;;;;;11.52;2.85;;;18.10;99.90;;;;;;5104513;27;45488;-72
2023/08/08 07:46:06;;;;;;;8.40;2.10;;;18.20;99.90;;;;;;5103575;27;45152;-72
2023/08/08 07:48:33;;;;;;;11.00;2.20;;;18.30;99.90;;;;;;5102962;27;46277;-73
2023/08/08 07:50:59;;;;;;;5.70;2.00;;;18.40;99.90;;;;;;5102092;27;45668;-73
2023/08/08 07:53:26;;;;;;;7.60;2.70;;;18.50;99.90;;;;;;5101684;27;45325;-72
2023/08/08 07:55:53;;;;;;;6.22;2.08;;;18.30;99.90;;;;;;5102862;27;45403;-72
2023/08/08 07:58:23;;;;;;;7.05;2.22;;;18.40;99.90;;;;;;5102756;27;47293;-72
2023/08/08 08:00:53;;;;;;;11.23;1.98;;;18.30;99.90;;;;;;5104492;27;45243;-72
2023/08/08 08:03:19;;;;;;;7.15;2.75;;;18.40;99.90;;;;;;5104061;27;45175;-73
2023/08/08 08:05:46;;;;;;;9.10;2.13;;;18.50;99.90;;;;;;5101933;27;45361;-72
2023/08/08 08:08:13;;;;;;;11.25;2.58;;;18.40;99.90;;;;;;5094170;27;46300;-72
2023/08/08 08:10:40;;;;;;;9.50;2.53;;;18.50;99.90;;;;;;5106234;27;45738;-73
2023/08/08 08:13:07;;;;;;;11.38;2.80;;;18.40;99.90;;;;;;5103391;27;45276;-72
2023/08/08 08:15:34;;;;;;;10.07;2.88;;;18.50;99.90;;;;;;5102111;27;45273;-72
2023/08/08 08:18:03;;;;;;;8.10;2.20;;;18.40;99.90;;;;;;5105722;27;48072;-72
2023/08/08 08:20:29;;;;;;;10.40;2.22;;;18.40;99.90;;;;;;5107494;27;45250;-72
2023/08/08 08:22:56;;;;;;;12.32;2.80;;;18.40;99.90;;;;;;5102449;27;45267;-72
2023/08/08 08:25:23;;;;;;;10.57;2.28;;;18.30;99.90;;;;;;5103088;27;45260;-73
2023/08/08 08:27:50;;;;;;;7.38;2.13;;;18.30;99.90;;;;;;5102640;27;45227;-73
2023/08/08 08:30:17;;;;;;;9.95;2.10;;;18.40;99.90;;;;;;5102067;27;45303;-73
2023/08/08 08:32:44;;;;;;;9.90;2.35;;;18.40;99.90;;;;;;5102031;27;45249;-72
2023/08/08 08:35:13;;;;;;;13.15;2.50;;;18.50;99.90;;;;;;5102737;27;45304;-72
2023/08/08 08:37:40;;;;;;;11.57;2.65;;;18.60;99.90;;;;;;5107364;27;45453;-72
2023/08/08 08:40:08;;;;;;;6.30;2.15;;;18.40;99.90;;;;;;5110132;27;45172;-72
2023/08/08 08:42:36;;;;;;;5.22;2.25;;;18.40;99.90;;;;;;5105688;27;45217;-73
2023/08/08 08:45:04;;;;;;;9.50;2.47;;;18.50;99.90;;;;;;5105279;27;45106;-72
2023/08/08 08:47:32;;;;;;;7.57;2.05;;;18.50;99.90;;;;;;5105282;27;46505;-72
2023/08/08 08:50:01;;;;;;;8.77;2.45;;;18.30;99.90;;;;;;5108012;27;45351;-72
2023/08/08 08:52:30;;;;;;;8.88;2.38;;;18.20;99.90;;;;;;5105481;27;45113;-73
2023/08/08 08:54:57;;;;;;;10.07;2.67;;;18.30;99.90;;;;;;5105364;27;45133;-72
2023/08/08 08:57:24;;;;;;;5.05;2.10;;;18.20;99.90;;;;;;5105753;27;47040;-73
2023/08/08 08:59:51;;;;;;;8.80;2.38;;;18.20;99.90;;;;;;5105911;27;45881;-72
2023/08/08 09:02:19;;;;;;;9.40;2.35;;;18.10;99.90;;;;;;5105296;27;45105;-72
2023/08/08 09:04:46;;;;;;;7.38;2.78;;;18.00;99.90;;;;;;5105025;27;45354;-72
2023/08/08 09:07:15;;;;;;;10.02;2.85;;;18.10;99.90;;;;;;5105964;27;46937;-72
2023/08/08 09:09:44;;;;;;;8.45;2.72;;;18.30;99.90;;;;;;5105798;27;45122;-72
2023/08/08 09:12:12;;;;;;;9.32;2.45;;;18.30;99.90;;;;;;5105789;27;45456;-72
2023/08/08 09:14:41;;;;;;;6.90;2.65;;;18.30;99.90;;;;;;5119035;27;45328;-73
2023/08/08 09:17:13;;;;;;;7.60;2.40;;;18.20;99.90;;;;;;5105539;27;46549;-72
2023/08/08 09:19:43;;;;;;;12.88;2.95;;;18.30;99.90;;;;;;5104163;27;45167;-72
2023/08/08 09:22:09;;;;;;;7.50;2.30;;;18.40;99.90;;;;;;5105145;27;45191;-72
2023/08/08 09:24:41;;;;;;;11.73;2.42;;;18.40;99.90;;;;;;5104547;27;45426;-72
2023/08/08 09:27:10;;;;;;;7.70;2.63;;;18.50;99.90;;;;;;5105106;27;48087;-72
2023/08/08 09:29:38;;;;;;;6.10;2.33;;;18.50;99.90;;;;;;5104408;27;45283;-72
2023/08/08 09:32:05;;;;;;;6.65;2.40;;;18.60;99.90;;;;;;5104042;27;45157;-72
2023/08/08 09:34:32;;;;;;;12.48;2.95;;;18.60;99.90;;;;;;5102509;27;45202;-72
2023/08/08 09:36:59;;;;;;;9.35;3.33;;;18.70;99.90;;;;;;5108194;27;46268;-72
2023/08/08 09:39:26;;;;;;;12.05;2.42;;;18.70;99.90;;;;;;5100434;27;45692;-72
2023/08/08 09:41:53;;;;;;;6.60;2.78;;;18.80;99.90;;;;;;5101917;27;45581;-72
2023/08/08 09:44:26;;;;;;;8.02;2.70;;;18.70;99.90;;;;;;5107000;27;45275;-72
2023/08/08 09:46:53;;;;;;;13.18;3.25;;;18.70;99.90;;;;;;5097698;27;47947;-72
2023/08/08 09:49:22;;;;;;;4.82;1.95;;;18.80;99.90;;;;;;5102442;27;45350;-72
2023/08/08 09:51:50;;;;;;;16.90;3.33;;;18.80;99.90;;;;;;5104027;27;45171;-72
2023/08/08 09:54:17;;;;;;;9.50;2.65;;;18.90;99.90;;;;;;5110772;27;45463;-72
2023/08/08 09:56:44;;;;;;;9.40;2.40;;;18.40;99.90;;;;;;5102391;27;45267;-72
2023/08/08 09:59:12;;;;;;;5.55;2.10;;;18.70;99.90;;;;;;5090030;27;45441;-72
2023/08/08 10:01:41;;;;;;;8.50;2.67;;;18.90;99.90;;;;;;5101978;27;45265;-71
2023/08/08 10:04:08;;;;;;;9.75;2.40;;;19.00;99.40;;;;;;5105971;27;45418;-72
2023/08/08 10:06:35;;;;;;;8.63;2.20;;;18.60;99.90;;;;;;5104487;27;46281;-72
2023/08/08 10:09:04;;;;;;;8.40;2.25;;;18.70;99.90;;;;;;5102096;27;45657;-72
2023/08/08 10:11:32;;;;;;;10.00;2.38;;;18.80;99.30;;;;;;5103699;27;45114;-73
2023/08/08 10:14:02;;;;;;;8.18;2.63;;;18.50;99.50;;;;;;5105950;27;45585;-72
2023/08/08 10:16:28;;;;;;;12.75;2.60;;;18.20;99.90;;;;;;5104508;27;46427;-72
2023/08/08 10:19:02;;;;;;;13.90;2.38;;;18.10;99.90;;;;;;5101627;27;45386;-72
2023/08/08 10:21:32;;;;;;;11.73;2.85;;;18.30;99.90;;;;;;5105490;27;45203;-72
2023/08/08 10:24:04;;;;;;;12.88;2.40;;;18.40;99.90;;;;;;5110191;27;45173;-72
2023/08/08 10:26:31;;;;;;;9.80;2.50;;;18.30;99.90;;;;;;5099978;27;48235;-72
2023/08/08 10:28:59;;;;;;;8.35;2.40;;;18.20;99.90;;;;;;5108387;27;45360;-73
2023/08/08 10:31:26;;;;;;;10.40;2.55;;;17.90;99.90;;;;;;5103292;27;45164;-74
2023/08/08 10:34:05;;;;;;;6.15;2.40;;;18.00;99.90;;;;;;5109384;27;45390;-74
2023/08/08 10:36:45;;;;;;;9.82;2.90;;;18.40;99.90;;;;;;5103968;27;47527;-73
2023/08/08 10:39:17;;;;;;;9.35;2.88;;;18.70;99.50;;;;;;5105242;27;45220;-74
2023/08/08 10:41:48;;;;;;;9.18;2.90;;;18.30;99.90;;;;;;5097661;27;45271;-74
2023/08/08 10:44:21;;;;;;;10.43;2.78;;;18.30;99.90;;;;;;5101430;27;45192;-72
2023/08/08 10:46:48;;;;;;;10.55;2.40;;;17.50;99.90;;;;;;5104181;27;45302;-74
2023/08/08 10:49:18;;;;;;;5.18;2.30;;;17.60;99.90;;;;;;5105875;27;45232;-73
2023/08/08 10:51:47;;;;;;;16.20;2.53;;;17.70;99.90;;;;;;5099708;27;45193;-74
2023/08/08 10:54:15;;;;;;;6.75;2.38;;;17.90;99.90;;;;;;5103774;27;45478;-72
2023/08/08 10:56:49;;;;;;;5.70;2.28;;;18.10;99.90;;;;;;5105836;27;45169;-74
2023/08/08 10:59:17;;;;;;;9.15;2.22;;;18.40;98.40;;;;;;5103763;27;45527;-74
2023/08/08 11:01:47;;;;;;;5.57;2.20;;;18.80;98.80;;;;;;5100877;27;45533;-74
2023/08/08 11:04:16;;;;;;;6.60;2.50;;;17.90;99.40;;;;;;5102132;27;45223;-74
2023/08/08 11:06:43;;;;;;;11.07;2.28;;;18.00;99.90;;;;;;5107509;27;47178;-74
2023/08/08 11:09:10;;;;;;;9.95;2.50;;;18.00;99.90;;;;;;5101664;27;46115;-74
2023/08/08 11:11:38;;;;;;;9.18;2.47;;;18.40;99.90;;;;;;5102748;27;45154;-74
2023/08/08 11:14:13;;;;;;;6.88;2.10;;;19.00;97.10;;;;;;5109400;27;45383;-74
2023/08/08 11:16:41;;;;;;;11.38;2.22;;;18.60;97.40;;;;;;5104759;27;46556;-74
2023/08/08 11:19:08;;;;;;;5.50;2.10;;;18.20;99.80;;;;;;5103089;27;45464;-74
2023/08/08 11:21:37;;;;;;;6.38;1.85;;;17.80;99.20;;;;;;5104415;27;45356;-74
2023/08/08 11:24:06;;;;;;;6.50;1.90;;;18.10;99.10;;;;;;5104306;27;45075;-74
2023/08/08 11:26:32;;;;;;;7.82;1.77;;;17.50;99.90;;;;;;5099768;27;47686;-74
2023/08/08 11:29:00;;;;;;;8.13;2.75;;;17.50;99.90;;;;;;5099391;27;45217;-74
2023/08/08 11:31:27;;;;;;;6.40;1.88;;;17.60;99.90;;;;;;5106452;27;45233;-74
2023/08/08 11:33:55;;;;;;;6.38;2.30;;;17.90;99.90;;;;;;5102453;27;45317;-74
2023/08/08 11:36:22;;;;;;;7.43;2.35;;;17.80;99.90;;;;;;5103074;27;47385;-74
2023/08/08 11:38:51;;;;;;;10.25;2.42;;;17.50;99.90;;;;;;5095761;27;45260;-74
2023/08/08 11:41:21;;;;;;;7.25;1.95;;;17.50;99.90;;;;;;5102858;27;45142;-74
2023/08/08 11:43:48;;;;;;;7.85;2.45;;;17.40;99.90;;;;;;5103844;27;45571;-74
2023/08/08 11:46:15;;;;;;;5.60;2.40;;;17.00;99.90;;;;;;5103053;27;47673;-74
2023/08/08 11:48:42;;;;;;;9.15;2.13;;;17.40;99.90;;;;;;5102201;27;45188;-74
2023/08/08 11:51:09;;;;;;;7.75;2.80;;;17.70;99.90;;;;;;5096668;27;45128;-74
2023/08/08 11:53:37;;;;;;;7.25;2.53;;;17.60;99.90;;;;;;5097015;27;45279;-74
2023/08/08 11:56:06;;;;;;;7.55;2.42;;;17.50;99.90;;;;;;5097607;27;45405;-74
2023/08/08 11:58:33;;;;;;;10.85;2.97;;;17.40;99.90;;;;;;5099049;27;45516;-74
2023/08/08 12:01:00;;;;;;;9.60;3.25;;;17.40;99.90;;;;;;5101153;27;45345;-74
2023/08/08 12:03:27;;;;;;;8.52;2.83;;;17.40;99.90;;;;;;5102212;27;45371;-74
2023/08/08 12:05:54;;;;;;;5.22;2.67;;;17.20;99.90;;;;;;5104556;27;47023;-74
2023/08/08 12:08:21;;;;;;;6.45;2.55;;;16.90;99.90;;;;;;5101013;27;45343;-73
2023/08/08 12:10:53;;;;;;;6.80;3.05;;;16.50;99.90;;;;;;5110281;27;45146;-75
2023/08/08 12:13:22;;;;;;;5.88;2.30;;;16.70;99.90;;;;;;5108298;27;45509;-74
2023/08/08 12:15:50;;;;;;;4.85;2.35;;;16.70;99.90;;;;;;5106414;27;48386;-73
2023/08/08 12:18:18;;;;;;;4.93;2.22;;;16.80;99.90;;;;;;5110172;27;45099;-74
2023/08/08 12:20:45;;;;;;;6.93;2.03;;;16.80;99.90;;;;;;5107394;27;45244;-73
2023/08/08 12:23:12;;;;;;;6.78;2.15;;;17.00;99.90;;;;;;5107006;27;45317;-74
2023/08/08 12:25:40;;;;;;;6.95;2.30;;;17.10;99.90;;;;;;5106528;27;46607;-74
2023/08/08 12:28:07;;;;;;;7.18;3.00;;;15.70;99.90;;;;;;5115787;27;45293;-74
2023/08/08 12:30:35;;;;;;;8.48;2.67;;;15.50;99.90;;;;;;5101597;27;45240;-74
2023/08/08 12:33:02;;;;;;;4.88;2.38;;;15.50;99.90;;;;;;5111242;27;45518;-74
2023/08/08 12:35:29;;;;;;;7.72;2.40;;;15.50;99.90;;;;;;5104872;27;46544;-71
2023/08/08 12:37:56;;;;;;;5.65;2.85;;;15.60;99.90;;;;;;5101192;27;46155;-74
2023/08/08 12:40:22;;;;;;;5.47;2.53;;;15.80;99.90;;;;;;5096182;27;45400;-74
2023/08/08 12:42:49;;;;;;;8.85;2.92;;;16.10;99.90;;;;;;5107749;27;45180;-74
2023/08/08 12:45:17;;;;;;;8.25;2.80;;;16.30;99.90;;;;;;5106433;27;46313;-74
2023/08/08 12:47:46;;;;;;;9.00;2.65;;;16.50;99.90;;;;;;5107232;27;45353;-75